Terminal Aerodrome Forecast
Issued by NWS

Home | Current Version | Previous Version | Text Only | Print | Product List | Glossary On
Versions: 1 2 3 4 5 6 7 8 9 10 11 12 13 14 15 16
000
FTUS41 KBGM 012300
TAFRME
TAF
KRME 012324Z 0200/0224 VRB03KT P6SM SCT250
     FM020600 11005KT P6SM OVC080
     FM020900 11005KT P6SM OVC040
     FM021500 12010KT P6SM SCT250=

USA.gov is the U.S. government's official web portal to all federal, state and local government web resources and services.